sensor_id;sensor_type;location;lat;lon;timestamp;P1;durP1;ratioP1;P2;durP2;ratioP2
26536;SDS011;14204;51.262;5.488;2023-07-30T00:01:32;5.97;;;3.22;;
26536;SDS011;14204;51.262;5.488;2023-07-30T00:03:58;8.63;;;3.30;;
26536;SDS011;14204;51.262;5.488;2023-07-30T00:06:24;8.50;;;3.47;;
26536;SDS011;14204;51.262;5.488;2023-07-30T00:08:50;7.63;;;3.55;;
26536;SDS011;14204;51.262;5.488;2023-07-30T00:11:16;7.63;;;3.50;;
26536;SDS011;14204;51.262;5.488;2023-07-30T00:13:41;8.73;;;4.15;;
26536;SDS011;14204;51.262;5.488;2023-07-30T00:16:07;7.57;;;3.33;;
26536;SDS011;14204;51.262;5.488;2023-07-30T00:18:33;8.00;;;3.83;;
26536;SDS011;14204;51.262;5.488;2023-07-30T00:20:59;13.07;;;3.65;;
26536;SDS011;14204;51.262;5.488;2023-07-30T00:23:24;6.07;;;3.38;;
26536;SDS011;14204;51.262;5.488;2023-07-30T00:25:50;10.55;;;4.30;;
26536;SDS011;14204;51.262;5.488;2023-07-30T00:28:16;5.80;;;3.72;;
26536;SDS011;14204;51.262;5.488;2023-07-30T00:30:41;7.75;;;3.30;;
26536;SDS011;14204;51.262;5.488;2023-07-30T00:33:07;9.40;;;3.65;;
26536;SDS011;14204;51.262;5.488;2023-07-30T00:35:33;6.95;;;3.30;;
26536;SDS011;14204;51.262;5.488;2023-07-30T00:37:58;7.13;;;3.55;;
26536;SDS011;14204;51.262;5.488;2023-07-30T00:40:24;9.23;;;3.55;;
26536;SDS011;14204;51.262;5.488;2023-07-30T00:42:50;11.85;;;4.15;;
26536;SDS011;14204;51.262;5.488;2023-07-30T00:45:15;6.55;;;3.05;;
26536;SDS011;14204;51.262;5.488;2023-07-30T00:47:41;6.65;;;3.53;;
26536;SDS011;14204;51.262;5.488;2023-07-30T00:50:09;8.77;;;4.35;;
26536;SDS011;14204;51.262;5.488;2023-07-30T00:52:37;9.13;;;3.53;;
26536;SDS011;14204;51.262;5.488;2023-07-30T00:55:04;9.55;;;4.10;;
26536;SDS011;14204;51.262;5.488;2023-07-30T00:57:32;10.32;;;3.60;;
26536;SDS011;14204;51.262;5.488;2023-07-30T00:59:59;9.93;;;3.78;;
26536;SDS011;14204;51.262;5.488;2023-07-30T01:02:29;7.55;;;3.20;;
26536;SDS011;14204;51.262;5.488;2023-07-30T01:04:56;11.57;;;3.85;;
26536;SDS011;14204;51.262;5.488;2023-07-30T01:07:22;8.98;;;3.50;;
26536;SDS011;14204;51.262;5.488;2023-07-30T01:09:48;10.98;;;3.70;;
26536;SDS011;14204;51.262;5.488;2023-07-30T01:12:14;12.95;;;3.67;;
26536;SDS011;14204;51.262;5.488;2023-07-30T01:14:39;8.73;;;3.45;;
26536;SDS011;14204;51.262;5.488;2023-07-30T01:17:06;7.72;;;3.22;;
26536;SDS011;14204;51.262;5.488;2023-07-30T01:19:32;12.05;;;3.50;;
26536;SDS011;14204;51.262;5.488;2023-07-30T01:21:57;8.70;;;3.30;;
26536;SDS011;14204;51.262;5.488;2023-07-30T01:24:23;10.50;;;3.75;;
26536;SDS011;14204;51.262;5.488;2023-07-30T01:26:54;11.38;;;3.38;;
26536;SDS011;14204;51.262;5.488;2023-07-30T01:29:27;8.43;;;3.20;;
26536;SDS011;14204;51.262;5.488;2023-07-30T01:32:01;14.35;;;4.18;;
26536;SDS011;14204;51.262;5.488;2023-07-30T01:34:29;13.77;;;3.90;;
26536;SDS011;14204;51.262;5.488;2023-07-30T01:36:59;9.32;;;3.53;;
26536;SDS011;14204;51.262;5.488;2023-07-30T01:39:26;10.05;;;3.80;;
26536;SDS011;14204;51.262;5.488;2023-07-30T01:41:56;13.02;;;3.97;;
26536;SDS011;14204;51.262;5.488;2023-07-30T01:44:21;8.32;;;3.33;;
26536;SDS011;14204;51.262;5.488;2023-07-30T01:46:47;12.05;;;3.60;;
26536;SDS011;14204;51.262;5.488;2023-07-30T01:49:13;10.23;;;3.47;;
26536;SDS011;14204;51.262;5.488;2023-07-30T01:51:39;14.23;;;3.95;;
26536;SDS011;14204;51.262;5.488;2023-07-30T01:54:04;12.30;;;3.83;;
26536;SDS011;14204;51.262;5.488;2023-07-30T01:56:30;8.20;;;3.65;;
26536;SDS011;14204;51.262;5.488;2023-07-30T01:58:56;9.75;;;4.40;;
26536;SDS011;14204;51.262;5.488;2023-07-30T02:01:21;10.68;;;3.60;;
26536;SDS011;14204;51.262;5.488;2023-07-30T02:03:48;9.55;;;4.00;;
26536;SDS011;14204;51.262;5.488;2023-07-30T02:06:13;9.88;;;4.30;;
26536;SDS011;14204;51.262;5.488;2023-07-30T02:08:39;10.43;;;4.15;;
26536;SDS011;14204;51.262;5.488;2023-07-30T02:11:04;12.10;;;3.80;;
26536;SDS011;14204;51.262;5.488;2023-07-30T02:13:30;13.27;;;4.15;;
26536;SDS011;14204;51.262;5.488;2023-07-30T02:15:56;14.32;;;4.05;;
26536;SDS011;14204;51.262;5.488;2023-07-30T02:18:22;10.95;;;4.35;;
26536;SDS011;14204;51.262;5.488;2023-07-30T02:20:47;13.70;;;4.10;;
26536;SDS011;14204;51.262;5.488;2023-07-30T02:23:16;9.68;;;3.65;;
26536;SDS011;14204;51.262;5.488;2023-07-30T02:25:42;14.80;;;4.95;;
26536;SDS011;14204;51.262;5.488;2023-07-30T02:28:08;12.65;;;4.47;;
26536;SDS011;14204;51.262;5.488;2023-07-30T02:30:34;9.43;;;4.03;;
26536;SDS011;14204;51.262;5.488;2023-07-30T02:32:59;15.45;;;4.38;;
26536;SDS011;14204;51.262;5.488;2023-07-30T02:35:25;11.63;;;3.80;;
26536;SDS011;14204;51.262;5.488;2023-07-30T02:37:51;14.68;;;4.53;;
26536;SDS011;14204;51.262;5.488;2023-07-30T02:40:16;15.73;;;4.28;;
26536;SDS011;14204;51.262;5.488;2023-07-30T02:42:42;12.55;;;3.70;;
26536;SDS011;14204;51.262;5.488;2023-07-30T02:45:08;8.30;;;3.63;;
26536;SDS011;14204;51.262;5.488;2023-07-30T02:47:33;11.13;;;3.90;;
26536;SDS011;14204;51.262;5.488;2023-07-30T02:49:59;7.78;;;3.95;;
26536;SDS011;14204;51.262;5.488;2023-07-30T02:52:25;13.40;;;4.63;;
26536;SDS011;14204;51.262;5.488;2023-07-30T02:54:51;11.52;;;3.83;;
26536;SDS011;14204;51.262;5.488;2023-07-30T02:57:17;17.08;;;4.20;;
26536;SDS011;14204;51.262;5.488;2023-07-30T02:59:42;17.35;;;4.63;;
26536;SDS011;14204;51.262;5.488;2023-07-30T03:02:08;11.38;;;4.40;;
26536;SDS011;14204;51.262;5.488;2023-07-30T03:04:34;10.93;;;3.72;;
26536;SDS011;14204;51.262;5.488;2023-07-30T03:07:00;13.57;;;4.38;;
26536;SDS011;14204;51.262;5.488;2023-07-30T03:09:26;13.40;;;4.65;;
26536;SDS011;14204;51.262;5.488;2023-07-30T03:11:53;12.90;;;4.13;;
26536;SDS011;14204;51.262;5.488;2023-07-30T03:14:18;14.57;;;4.30;;
26536;SDS011;14204;51.262;5.488;2023-07-30T03:16:48;13.65;;;3.55;;
26536;SDS011;14204;51.262;5.488;2023-07-30T03:19:14;17.33;;;5.15;;
26536;SDS011;14204;51.262;5.488;2023-07-30T03:21:40;15.48;;;4.43;;
26536;SDS011;14204;51.262;5.488;2023-07-30T03:24:06;15.60;;;3.97;;
26536;SDS011;14204;51.262;5.488;2023-07-30T03:26:32;21.52;;;3.90;;
26536;SDS011;14204;51.262;5.488;2023-07-30T03:28:57;11.40;;;4.30;;
26536;SDS011;14204;51.262;5.488;2023-07-30T03:31:23;16.42;;;4.65;;
26536;SDS011;14204;51.262;5.488;2023-07-30T03:33:49;15.27;;;4.03;;
26536;SDS011;14204;51.262;5.488;2023-07-30T03:36:14;12.50;;;4.07;;
26536;SDS011;14204;51.262;5.488;2023-07-30T03:38:40;22.65;;;4.05;;
26536;SDS011;14204;51.262;5.488;2023-07-30T03:41:07;19.02;;;4.00;;
26536;SDS011;14204;51.262;5.488;2023-07-30T03:43:33;16.05;;;4.35;;
26536;SDS011;14204;51.262;5.488;2023-07-30T03:46:00;13.82;;;4.07;;
26536;SDS011;14204;51.262;5.488;2023-07-30T03:48:25;17.98;;;4.03;;
26536;SDS011;14204;51.262;5.488;2023-07-30T03:50:54;19.80;;;4.18;;
26536;SDS011;14204;51.262;5.488;2023-07-30T03:53:21;11.63;;;3.67;;
26536;SDS011;14204;51.262;5.488;2023-07-30T03:55:47;13.30;;;3.95;;
26536;SDS011;14204;51.262;5.488;2023-07-30T03:58:13;13.80;;;3.95;;
26536;SDS011;14204;51.262;5.488;2023-07-30T04:00:39;13.80;;;3.97;;
26536;SDS011;14204;51.262;5.488;2023-07-30T04:03:05;21.17;;;4.13;;
26536;SDS011;14204;51.262;5.488;2023-07-30T04:05:31;13.13;;;3.53;;
26536;SDS011;14204;51.262;5.488;2023-07-30T04:07:56;18.38;;;3.67;;
26536;SDS011;14204;51.262;5.488;2023-07-30T04:10:22;18.08;;;3.75;;
26536;SDS011;14204;51.262;5.488;2023-07-30T04:12:48;14.32;;;4.07;;
26536;SDS011;14204;51.262;5.488;2023-07-30T04:15:14;13.90;;;4.65;;
26536;SDS011;14204;51.262;5.488;2023-07-30T04:17:41;16.17;;;4.05;;
26536;SDS011;14204;51.262;5.488;2023-07-30T04:20:07;17.90;;;3.92;;
26536;SDS011;14204;51.262;5.488;2023-07-30T04:22:37;17.08;;;3.80;;
26536;SDS011;14204;51.262;5.488;2023-07-30T04:25:03;14.35;;;3.78;;
26536;SDS011;14204;51.262;5.488;2023-07-30T04:27:29;25.73;;;4.38;;
26536;SDS011;14204;51.262;5.488;2023-07-30T04:29:54;14.57;;;4.00;;
26536;SDS011;14204;51.262;5.488;2023-07-30T04:32:20;14.90;;;3.92;;
26536;SDS011;14204;51.262;5.488;2023-07-30T04:34:46;18.00;;;3.95;;
26536;SDS011;14204;51.262;5.488;2023-07-30T04:37:12;17.02;;;4.13;;
26536;SDS011;14204;51.262;5.488;2023-07-30T04:39:37;13.68;;;4.15;;
26536;SDS011;14204;51.262;5.488;2023-07-30T04:42:03;13.60;;;4.47;;
26536;SDS011;14204;51.262;5.488;2023-07-30T04:44:29;16.67;;;3.85;;
26536;SDS011;14204;51.262;5.488;2023-07-30T04:46:55;17.70;;;4.88;;
26536;SDS011;14204;51.262;5.488;2023-07-30T04:49:20;19.15;;;4.55;;
26536;SDS011;14204;51.262;5.488;2023-07-30T04:51:46;15.88;;;5.18;;
26536;SDS011;14204;51.262;5.488;2023-07-30T04:54:11;17.35;;;4.25;;
26536;SDS011;14204;51.262;5.488;2023-07-30T04:56:37;16.95;;;4.47;;
26536;SDS011;14204;51.262;5.488;2023-07-30T04:59:03;17.35;;;4.53;;
26536;SDS011;14204;51.262;5.488;2023-07-30T05:01:29;21.65;;;3.83;;
26536;SDS011;14204;51.262;5.488;2023-07-30T05:03:56;15.18;;;4.25;;
26536;SDS011;14204;51.262;5.488;2023-07-30T05:06:22;23.35;;;4.75;;
26536;SDS011;14204;51.262;5.488;2023-07-30T05:08:48;20.15;;;4.45;;
26536;SDS011;14204;51.262;5.488;2023-07-30T05:11:14;22.55;;;3.72;;
26536;SDS011;14204;51.262;5.488;2023-07-30T05:13:40;20.95;;;4.10;;
26536;SDS011;14204;51.262;5.488;2023-07-30T05:16:06;17.48;;;4.40;;
26536;SDS011;14204;51.262;5.488;2023-07-30T05:18:32;19.33;;;3.90;;
26536;SDS011;14204;51.262;5.488;2023-07-30T05:20:57;15.55;;;4.32;;
26536;SDS011;14204;51.262;5.488;2023-07-30T05:23:23;16.30;;;4.15;;
26536;SDS011;14204;51.262;5.488;2023-07-30T05:25:49;18.48;;;4.43;;
26536;SDS011;14204;51.262;5.488;2023-07-30T05:28:15;19.25;;;4.07;;
26536;SDS011;14204;51.262;5.488;2023-07-30T05:30:40;16.20;;;4.38;;
26536;SDS011;14204;51.262;5.488;2023-07-30T05:33:06;16.27;;;4.20;;
26536;SDS011;14204;51.262;5.488;2023-07-30T05:35:32;19.25;;;4.47;;
26536;SDS011;14204;51.262;5.488;2023-07-30T05:37:57;16.05;;;4.00;;
26536;SDS011;14204;51.262;5.488;2023-07-30T05:40:23;12.80;;;3.83;;
26536;SDS011;14204;51.262;5.488;2023-07-30T05:42:49;21.65;;;4.38;;
26536;SDS011;14204;51.262;5.488;2023-07-30T05:48:36;18.13;;;4.05;;
26536;SDS011;14204;51.262;5.488;2023-07-30T05:51:02;13.73;;;3.85;;
26536;SDS011;14204;51.262;5.488;2023-07-30T05:53:28;16.58;;;3.95;;
26536;SDS011;14204;51.262;5.488;2023-07-30T05:55:53;17.20;;;4.15;;
26536;SDS011;14204;51.262;5.488;2023-07-30T05:58:19;15.77;;;3.72;;
26536;SDS011;14204;51.262;5.488;2023-07-30T06:00:45;15.32;;;3.58;;
26536;SDS011;14204;51.262;5.488;2023-07-30T06:03:11;17.27;;;4.00;;
26536;SDS011;14204;51.262;5.488;2023-07-30T06:05:42;14.63;;;3.90;;
26536;SDS011;14204;51.262;5.488;2023-07-30T06:08:08;14.48;;;3.63;;
26536;SDS011;14204;51.262;5.488;2023-07-30T06:10:37;11.73;;;3.28;;
26536;SDS011;14204;51.262;5.488;2023-07-30T06:13:03;16.38;;;3.65;;
26536;SDS011;14204;51.262;5.488;2023-07-30T06:15:30;13.32;;;3.25;;
26536;SDS011;14204;51.262;5.488;2023-07-30T06:17:56;12.27;;;3.85;;
26536;SDS011;14204;51.262;5.488;2023-07-30T06:20:22;18.95;;;4.68;;
26536;SDS011;14204;51.262;5.488;2023-07-30T06:22:48;12.20;;;3.60;;
26536;SDS011;14204;51.262;5.488;2023-07-30T06:25:14;15.30;;;3.92;;
26536;SDS011;14204;51.262;5.488;2023-07-30T06:27:39;10.52;;;3.58;;
26536;SDS011;14204;51.262;5.488;2023-07-30T06:30:05;12.85;;;3.90;;
26536;SDS011;14204;51.262;5.488;2023-07-30T06:32:31;14.55;;;4.07;;
26536;SDS011;14204;51.262;5.488;2023-07-30T06:34:57;16.45;;;3.45;;
26536;SDS011;14204;51.262;5.488;2023-07-30T06:37:23;18.35;;;4.55;;
26536;SDS011;14204;51.262;5.488;2023-07-30T06:39:49;18.17;;;4.55;;
26536;SDS011;14204;51.262;5.488;2023-07-30T06:42:14;19.85;;;4.43;;
26536;SDS011;14204;51.262;5.488;2023-07-30T06:44:40;14.07;;;4.63;;
26536;SDS011;14204;51.262;5.488;2023-07-30T06:47:06;18.75;;;4.30;;
26536;SDS011;14204;51.262;5.488;2023-07-30T06:49:31;16.48;;;4.47;;
26536;SDS011;14204;51.262;5.488;2023-07-30T06:51:59;17.42;;;3.80;;
26536;SDS011;14204;51.262;5.488;2023-07-30T06:54:25;16.10;;;4.00;;
26536;SDS011;14204;51.262;5.488;2023-07-30T06:56:50;17.13;;;4.13;;
26536;SDS011;14204;51.262;5.488;2023-07-30T06:59:16;16.73;;;4.28;;
26536;SDS011;14204;51.262;5.488;2023-07-30T07:01:42;14.77;;;3.72;;
26536;SDS011;14204;51.262;5.488;2023-07-30T07:04:07;14.60;;;4.32;;
26536;SDS011;14204;51.262;5.488;2023-07-30T07:06:33;17.90;;;4.35;;
26536;SDS011;14204;51.262;5.488;2023-07-30T07:09:00;15.10;;;3.78;;
26536;SDS011;14204;51.262;5.488;2023-07-30T07:11:25;13.40;;;3.65;;
26536;SDS011;14204;51.262;5.488;2023-07-30T07:13:51;14.35;;;3.40;;
26536;SDS011;14204;51.262;5.488;2023-07-30T07:16:17;18.23;;;4.07;;
26536;SDS011;14204;51.262;5.488;2023-07-30T07:18:45;20.60;;;4.15;;
26536;SDS011;14204;51.262;5.488;2023-07-30T07:21:11;19.48;;;4.53;;
26536;SDS011;14204;51.262;5.488;2023-07-30T07:23:37;14.38;;;4.18;;
26536;SDS011;14204;51.262;5.488;2023-07-30T07:26:02;19.90;;;4.25;;
26536;SDS011;14204;51.262;5.488;2023-07-30T07:28:28;21.33;;;4.40;;
26536;SDS011;14204;51.262;5.488;2023-07-30T07:30:54;20.63;;;4.75;;
26536;SDS011;14204;51.262;5.488;2023-07-30T07:33:21;18.23;;;4.35;;
26536;SDS011;14204;51.262;5.488;2023-07-30T07:35:47;19.05;;;4.55;;
26536;SDS011;14204;51.262;5.488;2023-07-30T07:38:12;20.63;;;4.28;;
26536;SDS011;14204;51.262;5.488;2023-07-30T07:40:39;17.90;;;4.65;;
26536;SDS011;14204;51.262;5.488;2023-07-30T07:43:05;22.90;;;4.40;;
26536;SDS011;14204;51.262;5.488;2023-07-30T07:45:31;22.90;;;4.00;;
26536;SDS011;14204;51.262;5.488;2023-07-30T07:47:57;21.90;;;4.78;;
26536;SDS011;14204;51.262;5.488;2023-07-30T07:50:23;16.20;;;3.65;;
26536;SDS011;14204;51.262;5.488;2023-07-30T07:52:49;19.23;;;4.63;;
26536;SDS011;14204;51.262;5.488;2023-07-30T07:55:14;24.98;;;4.82;;
26536;SDS011;14204;51.262;5.488;2023-07-30T07:57:40;20.30;;;4.30;;
26536;SDS011;14204;51.262;5.488;2023-07-30T08:00:06;20.83;;;4.68;;
26536;SDS011;14204;51.262;5.488;2023-07-30T08:02:32;16.65;;;3.85;;
26536;SDS011;14204;51.262;5.488;2023-07-30T08:04:58;21.00;;;4.32;;
26536;SDS011;14204;51.262;5.488;2023-07-30T08:07:23;13.02;;;3.47;;
26536;SDS011;14204;51.262;5.488;2023-07-30T08:09:49;20.30;;;3.80;;
26536;SDS011;14204;51.262;5.488;2023-07-30T08:12:16;22.42;;;4.28;;
26536;SDS011;14204;51.262;5.488;2023-07-30T08:14:44;20.92;;;3.67;;
26536;SDS011;14204;51.262;5.488;2023-07-30T08:17:09;15.45;;;3.70;;
26536;SDS011;14204;51.262;5.488;2023-07-30T08:19:35;15.45;;;3.97;;
26536;SDS011;14204;51.262;5.488;2023-07-30T08:22:01;24.15;;;4.10;;
26536;SDS011;14204;51.262;5.488;2023-07-30T08:24:26;14.93;;;3.65;;
26536;SDS011;14204;51.262;5.488;2023-07-30T08:26:52;16.45;;;3.17;;
26536;SDS011;14204;51.262;5.488;2023-07-30T08:29:18;18.67;;;4.07;;
26536;SDS011;14204;51.262;5.488;2023-07-30T08:31:43;16.38;;;3.83;;
26536;SDS011;14204;51.262;5.488;2023-07-30T08:34:09;22.00;;;3.88;;
26536;SDS011;14204;51.262;5.488;2023-07-30T08:36:35;14.98;;;3.80;;
26536;SDS011;14204;51.262;5.488;2023-07-30T08:39:01;17.05;;;3.38;;
26536;SDS011;14204;51.262;5.488;2023-07-30T08:41:28;19.45;;;4.07;;
26536;SDS011;14204;51.262;5.488;2023-07-30T08:43:54;12.23;;;3.78;;
26536;SDS011;14204;51.262;5.488;2023-07-30T08:46:20;16.40;;;3.28;;
26536;SDS011;14204;51.262;5.488;2023-07-30T08:48:46;15.07;;;3.38;;
26536;SDS011;14204;51.262;5.488;2023-07-30T08:51:21;22.98;;;3.47;;
26536;SDS011;14204;51.262;5.488;2023-07-30T08:53:47;14.77;;;3.40;;
26536;SDS011;14204;51.262;5.488;2023-07-30T08:56:13;18.60;;;4.40;;
26536;SDS011;14204;51.262;5.488;2023-07-30T08:58:39;14.68;;;3.67;;
26536;SDS011;14204;51.262;5.488;2023-07-30T09:01:07;14.02;;;3.65;;
26536;SDS011;14204;51.262;5.488;2023-07-30T09:03:35;15.77;;;3.28;;
26536;SDS011;14204;51.262;5.488;2023-07-30T09:06:03;15.63;;;3.38;;
26536;SDS011;14204;51.262;5.488;2023-07-30T09:08:29;14.45;;;3.45;;
26536;SDS011;14204;51.262;5.488;2023-07-30T09:10:57;12.73;;;3.38;;
26536;SDS011;14204;51.262;5.488;2023-07-30T09:13:31;12.68;;;3.63;;
26536;SDS011;14204;51.262;5.488;2023-07-30T09:16:09;11.70;;;3.03;;
26536;SDS011;14204;51.262;5.488;2023-07-30T09:18:39;10.15;;;2.85;;
26536;SDS011;14204;51.262;5.488;2023-07-30T09:21:12;12.30;;;3.40;;
26536;SDS011;14204;51.262;5.488;2023-07-30T09:23:41;13.90;;;3.03;;
26536;SDS011;14204;51.262;5.488;2023-07-30T09:26:08;13.90;;;2.95;;
26536;SDS011;14204;51.262;5.488;2023-07-30T09:28:34;14.07;;;3.45;;
26536;SDS011;14204;51.262;5.488;2023-07-30T09:31:01;13.75;;;3.75;;
26536;SDS011;14204;51.262;5.488;2023-07-30T09:33:31;13.45;;;2.95;;
26536;SDS011;14204;51.262;5.488;2023-07-30T09:35:58;11.38;;;3.30;;
26536;SDS011;14204;51.262;5.488;2023-07-30T09:38:26;12.75;;;3.15;;
26536;SDS011;14204;51.262;5.488;2023-07-30T09:40:59;15.20;;;2.92;;
26536;SDS011;14204;51.262;5.488;2023-07-30T09:43:31;14.77;;;3.60;;
26536;SDS011;14204;51.262;5.488;2023-07-30T09:46:07;13.17;;;3.30;;
26536;SDS011;14204;51.262;5.488;2023-07-30T09:48:33;10.63;;;2.85;;
26536;SDS011;14204;51.262;5.488;2023-07-30T09:51:00;9.88;;;2.72;;
26536;SDS011;14204;51.262;5.488;2023-07-30T09:53:31;10.65;;;2.65;;
26536;SDS011;14204;51.262;5.488;2023-07-30T09:56:04;12.77;;;2.53;;
26536;SDS011;14204;51.262;5.488;2023-07-30T09:58:32;12.88;;;2.95;;
26536;SDS011;14204;51.262;5.488;2023-07-30T10:00:58;6.07;;;2.08;;
26536;SDS011;14204;51.262;5.488;2023-07-30T10:03:25;7.93;;;3.03;;
26536;SDS011;14204;51.262;5.488;2023-07-30T10:05:51;9.32;;;2.25;;
26536;SDS011;14204;51.262;5.488;2023-07-30T10:08:25;13.52;;;2.63;;
26536;SDS011;14204;51.262;5.488;2023-07-30T10:10:56;9.00;;;2.45;;
26536;SDS011;14204;51.262;5.488;2023-07-30T10:13:25;12.68;;;2.88;;
26536;SDS011;14204;51.262;5.488;2023-07-30T10:15:51;9.23;;;2.53;;
26536;SDS011;14204;51.262;5.488;2023-07-30T10:18:18;9.00;;;2.05;;
26536;SDS011;14204;51.262;5.488;2023-07-30T10:20:53;9.30;;;2.47;;
26536;SDS011;14204;51.262;5.488;2023-07-30T10:23:23;9.68;;;2.10;;
26536;SDS011;14204;51.262;5.488;2023-07-30T10:25:52;9.50;;;2.08;;
26536;SDS011;14204;51.262;5.488;2023-07-30T10:30:55;9.05;;;2.40;;
26536;SDS011;14204;51.262;5.488;2023-07-30T10:33:22;5.70;;;1.67;;
26536;SDS011;14204;51.262;5.488;2023-07-30T10:35:48;9.25;;;2.15;;
26536;SDS011;14204;51.262;5.488;2023-07-30T10:38:22;7.85;;;1.77;;
26536;SDS011;14204;51.262;5.488;2023-07-30T10:43:37;10.48;;;1.92;;
26536;SDS011;14204;51.262;5.488;2023-07-30T10:46:09;8.48;;;2.13;;
26536;SDS011;14204;51.262;5.488;2023-07-30T10:48:37;8.23;;;2.00;;
26536;SDS011;14204;51.262;5.488;2023-07-30T10:51:05;8.75;;;1.90;;
26536;SDS011;14204;51.262;5.488;2023-07-30T10:53:32;5.80;;;1.33;;
26536;SDS011;14204;51.262;5.488;2023-07-30T10:56:01;6.03;;;1.35;;
26536;SDS011;14204;51.262;5.488;2023-07-30T10:58:31;5.43;;;1.20;;
26536;SDS011;14204;51.262;5.488;2023-07-30T11:00:58;2.58;;;1.10;;
26536;SDS011;14204;51.262;5.488;2023-07-30T11:03:26;6.50;;;1.50;;
26536;SDS011;14204;51.262;5.488;2023-07-30T11:05:53;4.88;;;1.20;;
26536;SDS011;14204;51.262;5.488;2023-07-30T11:08:19;4.18;;;1.02;;
26536;SDS011;14204;51.262;5.488;2023-07-30T11:10:47;4.45;;;1.23;;
26536;SDS011;14204;51.262;5.488;2023-07-30T11:13:15;6.05;;;1.42;;
26536;SDS011;14204;51.262;5.488;2023-07-30T11:15:42;4.22;;;1.02;;
26536;SDS011;14204;51.262;5.488;2023-07-30T11:18:09;5.40;;;1.40;;
26536;SDS011;14204;51.262;5.488;2023-07-30T11:20:35;5.57;;;1.60;;
26536;SDS011;14204;51.262;5.488;2023-07-30T11:23:02;5.40;;;1.25;;
26536;SDS011;14204;51.262;5.488;2023-07-30T11:25:27;7.22;;;1.60;;
26536;SDS011;14204;51.262;5.488;2023-07-30T11:27:53;5.50;;;1.70;;
26536;SDS011;14204;51.262;5.488;2023-07-30T11:30:19;6.72;;;1.50;;
26536;SDS011;14204;51.262;5.488;2023-07-30T11:32:44;5.57;;;1.80;;
26536;SDS011;14204;51.262;5.488;2023-07-30T11:35:11;6.63;;;1.50;;
26536;SDS011;14204;51.262;5.488;2023-07-30T11:37:38;9.55;;;1.65;;
26536;SDS011;14204;51.262;5.488;2023-07-30T11:40:07;7.53;;;1.67;;
26536;SDS011;14204;51.262;5.488;2023-07-30T11:42:34;6.45;;;1.88;;
26536;SDS011;14204;51.262;5.488;2023-07-30T11:45:22;7.18;;;1.52;;
26536;SDS011;14204;51.262;5.488;2023-07-30T11:47:48;5.63;;;1.83;;
26536;SDS011;14204;51.262;5.488;2023-07-30T11:50:14;6.38;;;1.90;;
26536;SDS011;14204;51.262;5.488;2023-07-30T11:53:14;6.47;;;1.65;;
26536;SDS011;14204;51.262;5.488;2023-07-30T11:55:39;9.73;;;2.33;;
26536;SDS011;14204;51.262;5.488;2023-07-30T11:58:07;6.80;;;2.58;;
26536;SDS011;14204;51.262;5.488;2023-07-30T12:00:37;7.40;;;2.13;;
26536;SDS011;14204;51.262;5.488;2023-07-30T12:03:07;5.28;;;1.75;;
26536;SDS011;14204;51.262;5.488;2023-07-30T12:05:37;8.85;;;2.00;;
26536;SDS011;14204;51.262;5.488;2023-07-30T12:08:04;10.65;;;2.28;;
26536;SDS011;14204;51.262;5.488;2023-07-30T12:10:42;6.47;;;2.13;;
26536;SDS011;14204;51.262;5.488;2023-07-30T12:13:12;8.43;;;1.98;;
26536;SDS011;14204;51.262;5.488;2023-07-30T12:15:43;9.55;;;2.35;;
26536;SDS011;14204;51.262;5.488;2023-07-30T12:18:09;6.90;;;1.90;;
26536;SDS011;14204;51.262;5.488;2023-07-30T12:20:35;7.53;;;2.00;;
26536;SDS011;14204;51.262;5.488;2023-07-30T12:23:01;5.50;;;1.90;;
26536;SDS011;14204;51.262;5.488;2023-07-30T12:25:28;3.95;;;2.25;;
26536;SDS011;14204;51.262;5.488;2023-07-30T12:27:54;8.57;;;2.13;;
26536;SDS011;14204;51.262;5.488;2023-07-30T12:30:19;9.80;;;1.98;;
26536;SDS011;14204;51.262;5.488;2023-07-30T12:32:45;9.23;;;2.58;;
26536;SDS011;14204;51.262;5.488;2023-07-30T12:35:11;8.52;;;2.03;;
26536;SDS011;14204;51.262;5.488;2023-07-30T12:37:36;8.73;;;1.85;;
26536;SDS011;14204;51.262;5.488;2023-07-30T12:40:02;5.43;;;1.70;;
26536;SDS011;14204;51.262;5.488;2023-07-30T12:42:29;6.93;;;1.83;;
26536;SDS011;14204;51.262;5.488;2023-07-30T12:44:54;6.55;;;1.90;;
26536;SDS011;14204;51.262;5.488;2023-07-30T12:47:20;7.18;;;1.83;;
26536;SDS011;14204;51.262;5.488;2023-07-30T12:49:46;6.93;;;1.92;;
26536;SDS011;14204;51.262;5.488;2023-07-30T12:52:11;6.75;;;2.00;;
26536;SDS011;14204;51.262;5.488;2023-07-30T12:54:37;5.53;;;1.85;;
26536;SDS011;14204;51.262;5.488;2023-07-30T12:57:03;10.52;;;2.28;;
26536;SDS011;14204;51.262;5.488;2023-07-30T12:59:28;5.22;;;1.60;;
26536;SDS011;14204;51.262;5.488;2023-07-30T13:01:56;5.32;;;2.03;;
26536;SDS011;14204;51.262;5.488;2023-07-30T13:04:23;5.72;;;1.40;;
26536;SDS011;14204;51.262;5.488;2023-07-30T13:06:52;6.25;;;1.98;;
26536;SDS011;14204;51.262;5.488;2023-07-30T13:09:18;6.18;;;1.45;;
26536;SDS011;14204;51.262;5.488;2023-07-30T13:11:44;5.53;;;1.52;;
26536;SDS011;14204;51.262;5.488;2023-07-30T13:14:10;5.05;;;2.03;;
26536;SDS011;14204;51.262;5.488;2023-07-30T13:16:36;5.80;;;1.52;;
26536;SDS011;14204;51.262;5.488;2023-07-30T13:19:01;9.52;;;1.83;;
26536;SDS011;14204;51.262;5.488;2023-07-30T13:21:27;5.90;;;1.90;;
26536;SDS011;14204;51.262;5.488;2023-07-30T13:23:53;7.53;;;1.95;;
26536;SDS011;14204;51.262;5.488;2023-07-30T13:26:18;7.90;;;1.83;;
26536;SDS011;14204;51.262;5.488;2023-07-30T13:28:44;5.95;;;1.63;;
26536;SDS011;14204;51.262;5.488;2023-07-30T13:31:10;8.15;;;1.80;;
26536;SDS011;14204;51.262;5.488;2023-07-30T13:33:36;3.17;;;1.23;;
26536;SDS011;14204;51.262;5.488;2023-07-30T13:36:02;6.07;;;1.77;;
26536;SDS011;14204;51.262;5.488;2023-07-30T13:38:28;5.57;;;1.80;;
26536;SDS011;14204;51.262;5.488;2023-07-30T13:40:54;6.35;;;1.63;;
26536;SDS011;14204;51.262;5.488;2023-07-30T13:43:19;7.93;;;1.85;;
26536;SDS011;14204;51.262;5.488;2023-07-30T13:45:45;5.72;;;1.40;;
26536;SDS011;14204;51.262;5.488;2023-07-30T13:48:15;4.10;;;1.60;;
26536;SDS011;14204;51.262;5.488;2023-07-30T13:50:44;6.15;;;1.45;;
26536;SDS011;14204;51.262;5.488;2023-07-30T13:53:09;5.63;;;1.73;;
26536;SDS011;14204;51.262;5.488;2023-07-30T13:55:35;4.18;;;1.33;;
26536;SDS011;14204;51.262;5.488;2023-07-30T13:58:01;7.38;;;2.03;;
26536;SDS011;14204;51.262;5.488;2023-07-30T14:00:28;7.35;;;1.52;;
26536;SDS011;14204;51.262;5.488;2023-07-30T14:02:54;6.53;;;1.50;;
26536;SDS011;14204;51.262;5.488;2023-07-30T14:05:20;6.88;;;1.70;;
26536;SDS011;14204;51.262;5.488;2023-07-30T14:07:45;3.83;;;1.50;;
26536;SDS011;14204;51.262;5.488;2023-07-30T14:10:11;5.30;;;1.45;;
26536;SDS011;14204;51.262;5.488;2023-07-30T14:12:37;4.00;;;1.30;;
26536;SDS011;14204;51.262;5.488;2023-07-30T14:15:03;5.85;;;1.38;;
26536;SDS011;14204;51.262;5.488;2023-07-30T14:17:29;4.53;;;1.63;;
26536;SDS011;14204;51.262;5.488;2023-07-30T14:19:55;7.85;;;1.40;;
26536;SDS011;14204;51.262;5.488;2023-07-30T14:22:21;3.85;;;1.42;;
26536;SDS011;14204;51.262;5.488;2023-07-30T14:24:47;7.65;;;1.60;;
26536;SDS011;14204;51.262;5.488;2023-07-30T14:27:12;9.52;;;1.75;;
26536;SDS011;14204;51.262;5.488;2023-07-30T14:29:38;4.30;;;1.52;;
26536;SDS011;14204;51.262;5.488;2023-07-30T14:32:04;6.28;;;1.30;;
26536;SDS011;14204;51.262;5.488;2023-07-30T14:34:30;6.22;;;1.73;;
26536;SDS011;14204;51.262;5.488;2023-07-30T14:36:56;4.95;;;1.27;;
26536;SDS011;14204;51.262;5.488;2023-07-30T14:39:22;7.53;;;1.70;;
26536;SDS011;14204;51.262;5.488;2023-07-30T14:41:47;5.20;;;1.63;;
26536;SDS011;14204;51.262;5.488;2023-07-30T14:44:14;4.80;;;1.73;;
26536;SDS011;14204;51.262;5.488;2023-07-30T14:46:40;6.07;;;1.48;;